Time;durP1;ratioP1;P1;durP2;ratioP2;P2;SDS_P1;SDS_P2;PMS_P1;PMS_P2;Temp;Humidity;BMP_temperature;BMP_pressure;BME280_temperature;BME280_humidity;BME280_pressure;Samples;Min_cycle;Max_cycle;Signal;HPM_P1;HPM_P2
2021/10/29 00:02:16;;;;;;;39.27;18.30;;;10.20;99.90;;;;;;5084606;28;20310;-71
2021/10/29 00:04:42;;;;;;;37.00;17.20;;;10.20;99.90;;;;;;5046453;28;20743;-72
2021/10/29 00:07:09;;;;;;;44.90;19.77;;;10.20;99.90;;;;;;5043459;28;20458;-72
2021/10/29 00:09:35;;;;;;;44.07;18.70;;;10.20;99.90;;;;;;5071617;28;20723;-72
2021/10/29 00:12:02;;;;;;;41.80;19.27;;;10.20;99.90;;;;;;5059419;28;20542;-71
2021/10/29 00:14:31;;;;;;;38.00;16.93;;;10.20;99.90;;;;;;5049572;28;20546;-72
2021/10/29 00:16:58;;;;;;;39.40;18.10;;;10.20;99.90;;;;;;5033843;28;20545;-72
2021/10/29 00:19:24;;;;;;;40.10;17.90;;;10.10;99.90;;;;;;5064910;28;20504;-71
2021/10/29 00:21:50;;;;;;;36.87;18.67;;;10.20;99.90;;;;;;5029958;28;20887;-71
2021/10/29 00:24:15;;;;;;;37.60;16.90;;;10.10;99.90;;;;;;5047053;28;20253;-72
2021/10/29 00:26:42;;;;;;;36.97;19.47;;;10.20;99.90;;;;;;5032153;28;20266;-72
2021/10/29 00:29:08;;;;;;;38.80;18.20;;;10.20;99.90;;;;;;5031663;28;20219;-72
2021/10/29 00:31:34;;;;;;;46.27;19.10;;;10.20;99.90;;;;;;5051189;28;20450;-71
2021/10/29 00:34:00;;;;;;;39.93;18.60;;;10.20;99.90;;;;;;5032509;28;20478;-71
2021/10/29 00:36:26;;;;;;;35.77;16.90;;;10.20;99.90;;;;;;5048928;28;20216;-72
2021/10/29 00:38:51;;;;;;;35.27;16.10;;;10.10;99.90;;;;;;5033035;28;20583;-72
2021/10/29 00:41:17;;;;;;;40.43;17.97;;;10.20;99.90;;;;;;5063934;28;20220;-70
2021/10/29 00:43:43;;;;;;;36.07;19.83;;;10.20;99.90;;;;;;5047512;28;20213;-72
2021/10/29 00:46:09;;;;;;;38.63;17.83;;;10.20;99.90;;;;;;5062634;28;20212;-70
2021/10/29 00:48:35;;;;;;;43.27;18.40;;;10.20;99.90;;;;;;5085096;28;20292;-72
2021/10/29 00:51:03;;;;;;;39.17;17.27;;;10.20;99.90;;;;;;5081419;28;20614;-71
2021/10/29 00:53:30;;;;;;;41.50;18.37;;;10.20;99.90;;;;;;5057082;28;20500;-72
2021/10/29 00:55:56;;;;;;;44.33;19.07;;;10.20;99.90;;;;;;5048435;28;20999;-72
2021/10/29 00:58:22;;;;;;;43.13;19.10;;;10.10;99.90;;;;;;5049260;28;20473;-71
2021/10/29 01:00:48;;;;;;;47.83;21.10;;;10.20;99.90;;;;;;5032548;28;20976;-71
2021/10/29 01:03:14;;;;;;;43.53;18.73;;;10.20;99.90;;;;;;5060597;28;20230;-72
2021/10/29 01:05:39;;;;;;;39.87;19.70;;;10.20;99.90;;;;;;5068224;28;20226;-71
2021/10/29 01:08:06;;;;;;;45.07;19.03;;;10.20;99.90;;;;;;5057693;28;20225;-71
2021/10/29 01:10:32;;;;;;;47.77;19.30;;;10.20;99.90;;;;;;5039449;28;20220;-71
2021/10/29 01:12:58;;;;;;;43.67;19.30;;;10.20;99.90;;;;;;5044060;28;20461;-72
2021/10/29 01:15:25;;;;;;;43.37;20.07;;;10.20;99.90;;;;;;5045857;28;20236;-72
2021/10/29 01:17:51;;;;;;;41.70;18.57;;;10.20;99.90;;;;;;5051815;28;20451;-72
2021/10/29 01:20:21;;;;;;;48.27;20.17;;;10.20;99.90;;;;;;5032177;28;20813;-72
2021/10/29 01:22:47;;;;;;;44.73;18.57;;;10.20;99.90;;;;;;5051915;28;20219;-72
2021/10/29 01:25:12;;;;;;;39.40;18.07;;;10.20;99.90;;;;;;5050413;28;20457;-73
2021/10/29 01:27:39;;;;;;;46.87;19.30;;;10.20;99.90;;;;;;5040326;28;20243;-72
2021/10/29 01:30:06;;;;;;;38.27;18.53;;;10.20;99.90;;;;;;5071545;28;20220;-73
2021/10/29 01:32:32;;;;;;;34.97;19.10;;;10.20;99.90;;;;;;5057029;28;20452;-71
2021/10/29 01:34:58;;;;;;;37.17;17.57;;;10.20;99.90;;;;;;5038252;28;20458;-72
2021/10/29 01:37:25;;;;;;;35.47;17.70;;;10.20;99.90;;;;;;5039348;28;20215;-71
2021/10/29 01:39:51;;;;;;;34.90;18.50;;;10.20;99.90;;;;;;5056665;28;20481;-73
2021/10/29 01:42:16;;;;;;;35.60;18.50;;;10.20;99.90;;;;;;5046517;28;20434;-73
2021/10/29 01:44:42;;;;;;;41.63;18.20;;;10.20;99.90;;;;;;5046456;28;20701;-71
2021/10/29 01:47:08;;;;;;;36.70;18.30;;;10.20;99.90;;;;;;5056174;28;20715;-71
2021/10/29 01:49:35;;;;;;;44.63;19.90;;;10.10;99.90;;;;;;5062032;28;20529;-72
2021/10/29 01:52:01;;;;;;;37.80;18.70;;;10.20;99.90;;;;;;5060871;28;20720;-71
2021/10/29 01:54:27;;;;;;;35.60;18.07;;;10.20;99.90;;;;;;5053141;28;20470;-72
2021/10/29 01:56:53;;;;;;;42.83;18.40;;;10.20;99.90;;;;;;5064292;28;20454;-71
2021/10/29 01:59:18;;;;;;;32.27;15.87;;;10.10;99.90;;;;;;5048718;28;20215;-71
2021/10/29 02:01:44;;;;;;;30.40;16.40;;;10.10;99.90;;;;;;5063252;28;20599;-72
2021/10/29 02:04:10;;;;;;;37.53;18.10;;;10.10;99.90;;;;;;5047048;28;20357;-72
2021/10/29 02:06:36;;;;;;;36.77;18.20;;;10.10;99.90;;;;;;5045836;28;20318;-72
2021/10/29 02:09:02;;;;;;;34.70;17.20;;;10.10;99.90;;;;;;5049377;28;20454;-74
2021/10/29 02:11:28;;;;;;;34.40;17.77;;;10.10;99.90;;;;;;5041069;28;20222;-72
2021/10/29 02:13:53;;;;;;;36.47;20.37;;;10.10;99.90;;;;;;5069281;28;20461;-71
2021/10/29 02:16:19;;;;;;;35.87;17.77;;;10.10;99.90;;;;;;5041073;28;20299;-72
2021/10/29 02:18:45;;;;;;;41.30;19.13;;;10.10;99.90;;;;;;5061719;28;20215;-71
2021/10/29 02:21:10;;;;;;;44.33;19.17;;;10.10;99.90;;;;;;5031170;28;20273;-72
2021/10/29 02:23:36;;;;;;;37.10;19.20;;;10.10;99.90;;;;;;5047340;28;20708;-71
2021/10/29 02:26:02;;;;;;;38.37;19.10;;;10.10;99.90;;;;;;5058213;28;20227;-69
2021/10/29 02:28:28;;;;;;;29.90;16.77;;;10.00;99.90;;;;;;5069701;28;20250;-71
2021/10/29 02:30:54;;;;;;;42.23;19.87;;;10.00;99.90;;;;;;5044131;28;20473;-71
2021/10/29 02:33:20;;;;;;;39.90;17.10;;;10.00;99.90;;;;;;5043440;28;20708;-71
2021/10/29 02:35:46;;;;;;;32.40;17.40;;;10.00;99.90;;;;;;5062221;28;20223;-71
2021/10/29 02:38:12;;;;;;;40.20;18.00;;;10.00;99.90;;;;;;5042941;28;21039;-70
2021/10/29 02:40:39;;;;;;;37.10;19.47;;;10.00;99.90;;;;;;5055451;28;20461;-70
2021/10/29 02:43:04;;;;;;;35.27;17.53;;;10.00;99.90;;;;;;5045529;28;20681;-71
2021/10/29 02:45:31;;;;;;;39.90;20.87;;;10.00;99.90;;;;;;5063433;28;20524;-72
2021/10/29 02:47:57;;;;;;;32.77;17.87;;;10.00;99.90;;;;;;5088583;28;20253;-72
2021/10/29 02:50:23;;;;;;;36.37;17.97;;;10.00;99.90;;;;;;5051899;28;20442;-71
2021/10/29 02:52:49;;;;;;;39.70;19.90;;;10.00;99.90;;;;;;5054998;28;20450;-72
2021/10/29 02:55:16;;;;;;;36.27;18.10;;;10.00;99.90;;;;;;5054520;28;20989;-71
2021/10/29 02:57:44;;;;;;;34.93;18.73;;;10.00;99.90;;;;;;5071800;28;20530;-71
2021/10/29 03:00:15;;;;;;;37.17;18.77;;;10.00;99.90;;;;;;5063248;28;20491;-69
2021/10/29 03:02:42;;;;;;;38.67;19.40;;;10.00;99.90;;;;;;5062746;28;20991;-71
2021/10/29 03:05:11;;;;;;;39.50;18.07;;;10.00;99.90;;;;;;5054352;28;20461;-70
2021/10/29 03:07:37;;;;;;;34.17;18.83;;;10.00;99.90;;;;;;5071460;28;20544;-71
2021/10/29 03:10:07;;;;;;;39.23;18.80;;;10.00;99.90;;;;;;5060091;28;20538;-70
2021/10/29 03:12:34;;;;;;;37.87;19.13;;;10.00;99.90;;;;;;5065702;28;20700;-71
2021/10/29 03:15:00;;;;;;;37.87;19.40;;;10.00;99.90;;;;;;5061453;28;20465;-69
2021/10/29 03:17:26;;;;;;;38.17;19.00;;;10.00;99.90;;;;;;5064692;28;20469;-71
2021/10/29 03:19:52;;;;;;;34.80;18.87;;;10.00;99.90;;;;;;5042047;28;20246;-71
2021/10/29 03:22:18;;;;;;;33.47;18.63;;;10.00;99.90;;;;;;5070493;28;20223;-72
2021/10/29 03:24:43;;;;;;;35.90;18.63;;;10.00;99.90;;;;;;5053103;28;21039;-72
2021/10/29 03:27:09;;;;;;;38.87;17.77;;;10.00;99.90;;;;;;5064598;28;20582;-72
2021/10/29 03:29:36;;;;;;;45.43;18.70;;;9.90;99.90;;;;;;5064892;28;20459;-71
2021/10/29 03:32:02;;;;;;;43.90;19.30;;;9.90;99.90;;;;;;5048854;28;20277;-71
2021/10/29 03:34:27;;;;;;;34.67;18.80;;;9.90;99.90;;;;;;5050255;28;20494;-73
2021/10/29 03:36:53;;;;;;;29.40;17.57;;;9.90;99.90;;;;;;5052776;28;20708;-71
2021/10/29 03:39:31;;;;;;;35.57;18.20;;;9.90;99.90;;;;;;5032430;28;20211;-71
2021/10/29 03:42:03;;;;;;;33.50;17.40;;;9.90;99.90;;;;;;5074353;28;20224;-71
2021/10/29 03:44:46;;;;;;;37.03;19.27;;;9.90;99.90;;;;;;5086474;28;20460;-71
2021/10/29 03:47:13;;;;;;;29.10;16.90;;;9.90;99.90;;;;;;5068905;28;20468;-72
2021/10/29 03:49:47;;;;;;;39.10;18.00;;;9.90;99.90;;;;;;5040379;28;20454;-72
2021/10/29 03:52:34;;;;;;;39.27;17.57;;;9.80;99.90;;;;;;5049887;28;20447;-73
2021/10/29 03:55:06;;;;;;;36.47;18.03;;;9.90;99.90;;;;;;5047465;28;20465;-72
2021/10/29 03:57:31;;;;;;;34.20;17.40;;;9.80;99.90;;;;;;5062438;28;20450;-73
2021/10/29 03:59:57;;;;;;;36.27;19.07;;;9.80;99.90;;;;;;5053261;28;20834;-71
2021/10/29 04:02:24;;;;;;;45.17;19.07;;;9.80;99.90;;;;;;5053396;28;20222;-71
2021/10/29 04:04:51;;;;;;;42.10;18.17;;;9.80;99.90;;;;;;5059290;28;20235;-71
2021/10/29 04:07:17;;;;;;;41.13;18.67;;;9.80;99.90;;;;;;5033243;28;20458;-71
2021/10/29 04:09:44;;;;;;;36.13;17.83;;;9.80;99.90;;;;;;5050035;28;20458;-71
2021/10/29 04:12:10;;;;;;;32.90;16.17;;;9.80;99.90;;;;;;5073745;28;20532;-72
2021/10/29 04:14:36;;;;;;;34.90;17.13;;;9.80;99.90;;;;;;5064546;28;20492;-71
2021/10/29 04:17:02;;;;;;;30.63;15.67;;;9.80;99.90;;;;;;5066082;28;20958;-71
2021/10/29 04:19:28;;;;;;;28.70;14.57;;;9.80;99.90;;;;;;5069881;28;20219;-71
2021/10/29 04:21:54;;;;;;;33.17;15.80;;;9.80;99.90;;;;;;5049716;28;20504;-71
2021/10/29 04:24:19;;;;;;;27.80;14.00;;;9.70;99.90;;;;;;5055300;28;20724;-71
2021/10/29 04:26:45;;;;;;;26.97;15.53;;;9.70;99.90;;;;;;5049929;28;20220;-71
2021/10/29 04:29:15;;;;;;;28.73;14.70;;;9.70;99.90;;;;;;5049513;28;20315;-71
2021/10/29 04:31:49;;;;;;;26.20;13.47;;;9.70;99.90;;;;;;5048251;28;20227;-71
2021/10/29 04:34:20;;;;;;;28.60;14.97;;;9.70;99.90;;;;;;5048724;28;20473;-71
2021/10/29 04:36:47;;;;;;;26.97;13.70;;;9.60;99.90;;;;;;5049477;28;20469;-71
2021/10/29 04:39:16;;;;;;;29.43;16.07;;;9.60;99.90;;;;;;5052272;28;20457;-72
2021/10/29 04:41:44;;;;;;;23.27;12.83;;;9.60;99.90;;;;;;5061336;28;20460;-71
2021/10/29 04:44:10;;;;;;;27.73;13.70;;;9.60;99.90;;;;;;5048787;28;20469;-72
2021/10/29 04:46:37;;;;;;;26.03;13.83;;;9.60;99.90;;;;;;5048706;28;20497;-72
2021/10/29 04:49:03;;;;;;;25.20;13.60;;;9.60;99.90;;;;;;5058309;28;20489;-72
2021/10/29 04:51:29;;;;;;;22.13;13.70;;;9.50;99.90;;;;;;5069513;28;20540;-71
2021/10/29 04:53:58;;;;;;;24.40;15.00;;;9.50;99.90;;;;;;5048028;28;20545;-71
2021/10/29 04:56:23;;;;;;;25.40;14.10;;;9.50;99.90;;;;;;5050553;28;20465;-71
2021/10/29 04:58:49;;;;;;;23.90;12.53;;;9.50;99.90;;;;;;5032394;28;20959;-71
2021/10/29 05:01:15;;;;;;;25.90;14.30;;;9.40;99.90;;;;;;5052218;28;20212;-71
2021/10/29 05:03:41;;;;;;;26.07;12.13;;;9.40;99.90;;;;;;5045429;28;20309;-71
2021/10/29 05:06:07;;;;;;;20.77;12.37;;;9.30;99.90;;;;;;5068145;28;20881;-72
2021/10/29 05:08:35;;;;;;;21.10;12.50;;;9.30;99.90;;;;;;5060934;28;20299;-72
2021/10/29 05:11:01;;;;;;;19.40;11.20;;;9.30;99.90;;;;;;5032919;28;20511;-72
2021/10/29 05:13:27;;;;;;;16.50;10.70;;;9.30;99.90;;;;;;5048248;28;20474;-74
2021/10/29 05:15:53;;;;;;;21.70;11.30;;;9.30;99.90;;;;;;5050790;28;20220;-71
2021/10/29 05:18:21;;;;;;;23.57;11.00;;;9.20;99.90;;;;;;5057321;28;20294;-71
2021/10/29 05:20:47;;;;;;;15.70;9.40;;;9.20;99.90;;;;;;5064930;28;20211;-72
2021/10/29 05:23:12;;;;;;;14.80;9.50;;;9.20;99.90;;;;;;5068316;28;20457;-71
2021/10/29 05:25:38;;;;;;;13.53;8.73;;;9.20;99.90;;;;;;5068825;28;20445;-71
2021/10/29 05:28:04;;;;;;;15.30;9.80;;;9.20;99.90;;;;;;5052122;28;20223;-72
2021/10/29 05:30:30;;;;;;;12.80;8.67;;;9.10;99.90;;;;;;5029244;28;20223;-72
2021/10/29 05:32:56;;;;;;;13.80;9.47;;;9.10;99.90;;;;;;5028597;28;20928;-72
2021/10/29 05:35:22;;;;;;;15.70;8.70;;;9.10;99.90;;;;;;5041509;28;20603;-71
2021/10/29 05:37:47;;;;;;;14.30;9.80;;;9.10;99.90;;;;;;5060458;28;20249;-71
2021/10/29 05:40:13;;;;;;;13.13;8.70;;;9.10;99.90;;;;;;5063526;28;20226;-71
2021/10/29 05:42:39;;;;;;;13.60;9.13;;;9.10;99.90;;;;;;5038236;28;20224;-73
2021/10/29 05:45:08;;;;;;;10.77;8.10;;;9.10;99.90;;;;;;5051373;28;20474;-72
2021/10/29 05:47:34;;;;;;;14.53;9.57;;;9.10;99.90;;;;;;5060478;28;20449;-74
2021/10/29 05:50:00;;;;;;;12.10;9.13;;;9.00;99.90;;;;;;5068429;28;20460;-72
2021/10/29 05:52:28;;;;;;;15.43;9.70;;;9.00;99.90;;;;;;5068602;28;20466;-72
2021/10/29 05:57:21;;;;;;;15.80;8.80;;;9.00;99.90;;;;;;5048248;28;20572;-72
2021/10/29 05:59:47;;;;;;;16.77;9.77;;;9.00;99.90;;;;;;5050166;28;20451;-71
2021/10/29 06:02:12;;;;;;;18.03;10.00;;;9.00;99.90;;;;;;5045030;28;20820;-70
2021/10/29 06:04:38;;;;;;;14.87;9.20;;;9.00;99.90;;;;;;5051879;28;20645;-71
2021/10/29 06:07:05;;;;;;;16.80;10.10;;;8.90;99.90;;;;;;5068502;28;20219;-68
2021/10/29 06:09:30;;;;;;;15.80;9.73;;;8.90;99.90;;;;;;5060715;28;20453;-71
2021/10/29 06:11:56;;;;;;;17.47;11.30;;;8.90;99.90;;;;;;5052295;28;20463;-71
2021/10/29 06:14:22;;;;;;;18.13;10.60;;;8.90;99.90;;;;;;5034328;28;20281;-71
2021/10/29 06:16:48;;;;;;;15.97;11.90;;;8.90;99.90;;;;;;5052649;28;20533;-72
2021/10/29 06:19:14;;;;;;;18.37;12.10;;;8.90;99.90;;;;;;5053347;28;20888;-70
2021/10/29 06:21:58;;;;;;;15.87;10.60;;;8.90;99.90;;;;;;5058899;28;20838;-71
2021/10/29 06:24:25;;;;;;;15.17;9.60;;;8.90;99.90;;;;;;5034784;28;20526;-71
2021/10/29 06:27:05;;;;;;;18.50;10.00;;;8.90;99.90;;;;;;5052397;28;20450;-73
2021/10/29 06:29:32;;;;;;;20.33;10.23;;;8.90;99.90;;;;;;5058804;28;20461;-71
2021/10/29 06:31:57;;;;;;;15.53;10.17;;;8.90;99.90;;;;;;5079833;28;21040;-70
2021/10/29 06:34:23;;;;;;;18.20;11.20;;;8.90;99.90;;;;;;5083025;28;20492;-70
2021/10/29 06:36:49;;;;;;;18.03;10.00;;;8.90;99.90;;;;;;5061656;28;20222;-70
2021/10/29 06:39:17;;;;;;;20.90;10.00;;;8.90;99.90;;;;;;5051481;28;20219;-70
2021/10/29 06:41:43;;;;;;;14.73;9.20;;;8.90;99.90;;;;;;5042984;28;20454;-71
2021/10/29 06:51:59;;;;;;;15.43;10.63;;;8.90;99.90;;;;;;5067976;28;20445;-72
2021/10/29 07:00:51;;;;;;;16.40;9.83;;;8.90;99.90;;;;;;5070838;28;20521;-71
2021/10/29 07:03:19;;;;;;;;;;;;;;;;;;;;;
2021/10/29 07:41:07;;;;;;;14.73;9.17;;;8.80;99.90;;;;;;5068875;28;20461;-71
2021/10/29 07:44:20;;;;;;;17.13;10.57;;;8.80;99.90;;;;;;5070434;28;20450;-71
2021/10/29 07:46:23;;;;;;;14.43;9.97;;;8.80;99.90;;;;;;5061739;28;20449;-71
2021/10/29 07:48:49;;;;;;;23.00;12.10;;;8.80;99.90;;;;;;5070281;28;20449;-71
2021/10/29 07:51:15;;;;;;;20.00;12.90;;;8.80;99.90;;;;;;5098695;28;20452;-71
2021/10/29 07:53:42;;;;;;;17.83;10.50;;;8.70;99.90;;;;;;5073395;28;20489;-71
2021/10/29 07:56:07;;;;;;;18.27;11.13;;;8.70;99.90;;;;;;5073044;28;20831;-70
2021/10/29 07:58:35;;;;;;;16.77;9.90;;;8.70;99.90;;;;;;5087062;28;20448;-71
2021/10/29 08:01:01;;;;;;;15.57;10.00;;;8.80;99.90;;;;;;5079896;28;20223;-71
2021/10/29 08:03:30;;;;;;;18.47;11.07;;;8.70;99.90;;;;;;5058268;28;20842;-71
2021/10/29 08:05:56;;;;;;;21.00;11.40;;;8.70;99.90;;;;;;5050455;28;20318;-71
2021/10/29 08:08:22;;;;;;;18.97;10.63;;;8.70;99.90;;;;;;5058970;28;20456;-71
2021/10/29 08:10:49;;;;;;;18.37;10.37;;;8.70;99.90;;;;;;5086309;28;20835;-72
2021/10/29 08:13:15;;;;;;;14.93;9.30;;;8.70;99.90;;;;;;5090824;28;20229;-71
2021/10/29 08:15:42;;;;;;;21.10;11.03;;;8.80;99.90;;;;;;5090460;28;20801;-70
2021/10/29 08:18:09;;;;;;;16.37;10.17;;;8.80;99.90;;;;;;5075473;28;20533;-69
2021/10/29 08:20:37;;;;;;;17.47;11.00;;;8.80;99.90;;;;;;5069810;28;20514;-74
2021/10/29 08:23:04;;;;;;;16.77;11.37;;;8.80;99.90;;;;;;5086976;28;20446;-73
2021/10/29 08:25:30;;;;;;;19.03;11.67;;;8.80;99.90;;;;;;5082911;28;20965;-71
2021/10/29 08:27:56;;;;;;;19.93;11.60;;;8.80;99.90;;;;;;5091545;28;20513;-71
2021/10/29 08:30:23;;;;;;;19.80;12.30;;;8.80;99.90;;;;;;5073037;28;20344;-71
2021/10/29 08:32:50;;;;;;;17.90;12.13;;;8.80;99.90;;;;;;5078563;28;20755;-70
2021/10/29 08:35:18;;;;;;;19.23;11.93;;;8.80;99.90;;;;;;5089571;28;20444;-71
2021/10/29 08:37:49;;;;;;;19.60;11.90;;;8.80;99.90;;;;;;5059805;28;20461;-72
2021/10/29 08:40:15;;;;;;;29.63;16.00;;;8.90;99.90;;;;;;5032800;28;20466;-71
2021/10/29 08:42:43;;;;;;;60.17;27.10;;;8.90;99.90;;;;;;5051722;28;20457;-71
2021/10/29 08:45:09;;;;;;;48.27;22.07;;;8.90;99.90;;;;;;5048900;28;20545;-70
2021/10/29 08:47:43;;;;;;;48.77;23.63;;;8.90;99.90;;;;;;5069100;28;20456;-72
2021/10/29 08:50:13;;;;;;;40.67;19.20;;;8.90;99.90;;;;;;5068184;28;20457;-72
2021/10/29 08:52:40;;;;;;;33.30;16.73;;;8.90;99.90;;;;;;5069016;28;20441;-71
2021/10/29 08:55:08;;;;;;;27.83;14.50;;;8.90;99.90;;;;;;5070242;28;20474;-70
2021/10/29 08:57:35;;;;;;;23.00;12.03;;;8.90;99.90;;;;;;5048715;28;20540;-72
2021/10/29 09:00:12;;;;;;;25.60;13.70;;;8.90;99.90;;;;;;5068658;28;20994;-71
2021/10/29 09:02:58;;;;;;;29.63;19.40;;;8.90;99.90;;;;;;5048402;28;20450;-71
2021/10/29 09:05:35;;;;;;;31.50;19.60;;;8.90;99.90;;;;;;5065780;28;20836;-71
2021/10/29 09:08:26;;;;;;;26.80;16.10;;;8.90;99.90;;;;;;5067933;28;20986;-70
2021/10/29 09:32:39;;;;;;;24.23;12.67;;;8.90;99.90;;;;;;5067328;28;20456;-70
2021/10/29 09:35:12;;;;;;;23.63;13.50;;;8.90;99.90;;;;;;5051154;28;20469;-71
2021/10/29 09:37:57;;;;;;;23.90;10.43;;;8.90;99.90;;;;;;5068467;28;20519;-72
2021/10/29 09:41:02;;;;;;;24.20;13.10;;;9.00;99.90;;;;;;5029305;28;20509;-71
2021/10/29 09:43:36;;;;;;;26.47;12.97;;;9.00;99.90;;;;;;5067025;28;20461;-72
2021/10/29 09:46:03;;;;;;;25.13;13.30;;;9.00;99.90;;;;;;5066970;28;20503;-72
2021/10/29 09:48:43;;;;;;;;;;;;;;;;;;;;;
2021/10/29 09:51:08;;;;;;;27.37;15.43;;;9.00;99.90;;;;;;5072396;28;20510;-71
2021/10/29 09:58:59;;;;;;;32.67;15.60;;;8.90;99.90;;;;;;5072985;28;20449;-72
2021/10/29 10:01:27;;;;;;;24.23;11.70;;;9.00;99.90;;;;;;5071931;28;20477;-71
2021/10/29 10:03:54;;;;;;;29.40;12.43;;;9.00;99.90;;;;;;5064804;28;20523;-71
2021/10/29 10:06:24;;;;;;;27.73;12.70;;;9.00;99.90;;;;;;5055224;28;20445;-71
2021/10/29 10:08:51;;;;;;;23.50;11.37;;;9.00;99.90;;;;;;5072311;28;20453;-71
2021/10/29 10:11:18;;;;;;;22.70;12.07;;;9.00;99.90;;;;;;5064766;28;20457;-71
2021/10/29 10:13:45;;;;;;;21.80;12.20;;;9.00;99.90;;;;;;5071622;28;20465;-72
2021/10/29 10:16:13;;;;;;;27.37;13.60;;;9.00;99.90;;;;;;5071540;28;20490;-71
2021/10/29 10:18:40;;;;;;;33.80;17.40;;;9.00;99.90;;;;;;5088735;28;20460;-72
2021/10/29 10:21:16;;;;;;;29.60;16.20;;;9.00;99.90;;;;;;5072737;28;20457;-71
2021/10/29 10:23:46;;;;;;;30.93;14.93;;;9.00;99.90;;;;;;5087982;28;20540;-72
2021/10/29 10:26:23;;;;;;;29.83;14.70;;;9.00;99.90;;;;;;5071580;28;20454;-71
2021/10/29 10:29:09;;;;;;;29.77;15.30;;;9.00;99.90;;;;;;5073550;28;20468;-71
2021/10/29 10:48:39;;;;;;;31.80;17.03;;;9.10;99.90;;;;;;5072313;28;20441;-71
2021/10/29 10:51:33;;;;;;;28.17;16.27;;;9.10;99.90;;;;;;5070874;28;20532;-70
2021/10/29 10:54:33;;;;;;;;;;;;;;;;;;;;;
2021/10/29 11:02:41;;;;;;;26.67;14.70;;;9.10;99.90;;;;;;5071697;28;20515;-72
2021/10/29 11:11:19;;;;;;;19.97;12.47;;;9.20;99.90;;;;;;5070374;28;20473;-71
2021/10/29 11:13:57;;;;;;;21.47;12.43;;;9.20;99.90;;;;;;5070008;28;20508;-71
2021/10/29 11:16:22;;;;;;;27.20;14.17;;;9.20;99.90;;;;;;5052932;28;20449;-71
2021/10/29 11:19:05;;;;;;;26.87;14.10;;;9.20;99.90;;;;;;5072081;28;20455;-73
2021/10/29 11:21:36;;;;;;;20.17;12.70;;;9.20;99.90;;;;;;5065399;28;20269;-72
2021/10/29 11:24:08;;;;;;;25.27;13.33;;;9.20;99.90;;;;;;5071780;28;20548;-70
2021/10/29 11:26:38;;;;;;;21.60;12.47;;;9.30;99.90;;;;;;5088343;28;20466;-72
2021/10/29 11:29:04;;;;;;;27.00;14.77;;;9.30;99.90;;;;;;5052970;28;20480;-71
2021/10/29 11:31:41;;;;;;;27.20;15.30;;;9.30;99.90;;;;;;5053781;28;20449;-71
2021/10/29 11:34:13;;;;;;;25.90;14.80;;;9.30;99.90;;;;;;5069719;28;20473;-72
2021/10/29 11:36:41;;;;;;;28.97;16.27;;;9.30;99.90;;;;;;5070166;28;20464;-71
2021/10/29 11:39:12;;;;;;;33.73;13.73;;;9.30;99.90;;;;;;5070063;28;20526;-71
2021/10/29 11:41:40;;;;;;;23.07;13.87;;;9.30;99.90;;;;;;5070721;28;20974;-71
2021/10/29 11:44:23;;;;;;;26.33;13.73;;;9.30;99.90;;;;;;5068658;28;21039;-70
2021/10/29 11:46:53;;;;;;;19.40;13.00;;;9.30;99.90;;;;;;5069615;28;20473;-71
2021/10/29 11:49:25;;;;;;;27.00;15.03;;;9.30;99.90;;;;;;5069000;28;20461;-71
2021/10/29 11:51:54;;;;;;;26.03;15.20;;;9.30;99.90;;;;;;5050740;28;20469;-70
2021/10/29 11:54:27;;;;;;;25.10;15.67;;;9.40;99.90;;;;;;5048764;28;20524;-72
2021/10/29 12:07:14;;;;;;;27.43;14.70;;;9.50;99.90;;;;;;5049776;28;20454;-69
2021/10/29 12:09:41;;;;;;;21.17;13.63;;;9.50;99.90;;;;;;5066932;28;20453;-71
2021/10/29 12:12:10;;;;;;;24.90;14.57;;;9.50;99.90;;;;;;5050928;28;20466;-72
2021/10/29 12:14:38;;;;;;;27.50;14.90;;;9.50;99.90;;;;;;5053148;28;20556;-72
2021/10/29 12:17:32;;;;;;;32.30;16.30;;;9.50;99.90;;;;;;5068756;28;20457;-71
2021/10/29 12:20:04;;;;;;;34.30;15.57;;;9.50;99.90;;;;;;5065132;28;20450;-71
2021/10/29 12:22:36;;;;;;;;;;;;;;;;;;;;;
2021/10/29 12:25:07;;;;;;;32.20;17.30;;;9.50;99.90;;;;;;5086027;28;20484;-71
2021/10/29 12:27:45;;;;;;;32.47;16.87;;;9.60;99.90;;;;;;5069561;28;20518;-71
2021/10/29 13:03:24;;;;;;;42.30;20.67;;;9.80;99.90;;;;;;5067742;28;20456;-70
2021/10/29 13:05:56;;;;;;;42.90;21.20;;;9.80;99.90;;;;;;5070285;28;20465;-72
2021/10/29 13:08:24;;;;;;;42.20;21.07;;;9.80;99.90;;;;;;5068612;28;20575;-71
2021/10/29 13:10:55;;;;;;;41.57;20.13;;;9.90;99.90;;;;;;5068047;28;20537;-71
2021/10/29 13:13:27;;;;;;;;;;;;;;;;;;;;;
2021/10/29 13:15:48;;;;;;;52.10;24.57;;;9.90;99.90;;;;;;5069407;28;20466;-71
2021/10/29 13:18:20;;;;;;;40.70;21.40;;;9.90;99.90;;;;;;5069998;28;20242;-70
2021/10/29 13:21:18;;;;;;;44.43;21.30;;;9.90;99.90;;;;;;5068239;28;20940;-71
2021/10/29 13:24:07;;;;;;;47.27;24.00;;;9.90;99.90;;;;;;5068579;28;20463;-70
2021/10/29 13:29:00;;;;;;;46.80;23.53;;;10.00;99.90;;;;;;5065934;28;20958;-71
2021/10/29 13:34:29;;;;;;;49.30;24.80;;;10.00;99.90;;;;;;5058214;28;20469;-71
2021/10/29 13:37:09;;;;;;;56.67;25.97;;;10.00;99.90;;;;;;5049512;28;20460;-71
2021/10/29 14:04:09;;;;;;;72.50;33.00;;;10.20;99.90;;;;;;5067428;28;20441;-71
2021/10/29 14:28:33;;;;;;;60.03;27.40;;;10.40;99.90;;;;;;5067618;28;20460;-72
2021/10/29 14:31:06;;;;;;;54.00;25.90;;;10.30;99.90;;;;;;5067229;28;20852;-70
2021/10/29 14:33:36;;;;;;;51.30;24.90;;;10.40;99.90;;;;;;5067836;28;20974;-71
2021/10/29 14:36:03;;;;;;;58.53;26.10;;;10.40;99.90;;;;;;5051711;28;20454;-71
2021/10/29 14:38:39;;;;;;;51.27;24.97;;;10.30;99.90;;;;;;5068699;28;20454;-71
2021/10/29 14:41:12;;;;;;;48.23;24.27;;;10.30;99.90;;;;;;5071370;28;20453;-69
2021/10/29 14:43:43;;;;;;;55.43;25.30;;;10.30;99.90;;;;;;5068033;28;20472;-72
2021/10/29 15:32:17;;;;;;;44.30;22.63;;;10.30;99.90;;;;;;5007960;28;20452;-71
2021/10/29 15:45:16;;;;;;;55.57;26.43;;;10.30;99.90;;;;;;5048762;28;20541;-71
2021/10/29 15:47:45;;;;;;;57.10;26.70;;;10.30;99.90;;;;;;5032960;28;20531;-71
2021/10/29 15:50:15;;;;;;;52.90;24.43;;;10.30;99.90;;;;;;5049826;28;20447;-71
2021/10/29 15:52:41;;;;;;;46.73;22.90;;;10.30;99.90;;;;;;5030275;28;20489;-71
2021/10/29 15:55:10;;;;;;;41.90;23.77;;;10.30;99.90;;;;;;5048857;28;20458;-71
2021/10/29 15:57:47;;;;;;;39.43;21.53;;;10.30;99.90;;;;;;5054691;28;20226;-71
2021/10/29 16:03:08;;;;;;;45.07;22.57;;;10.40;99.90;;;;;;5049591;28;20587;-72
2021/10/29 16:19:15;;;;;;;45.17;24.77;;;10.30;99.90;;;;;;5047632;28;20455;-72
2021/10/29 16:21:41;;;;;;;38.03;21.90;;;10.30;99.90;;;;;;5043500;28;20462;-72
2021/10/29 16:24:07;;;;;;;48.70;23.67;;;10.30;99.90;;;;;;5047407;28;20215;-72
2021/10/29 16:26:34;;;;;;;42.13;22.63;;;10.30;99.90;;;;;;5036206;28;20315;-72
2021/10/29 16:29:00;;;;;;;48.70;22.80;;;10.30;99.90;;;;;;5047664;28;20234;-72
2021/10/29 16:31:27;;;;;;;41.87;21.17;;;10.20;99.90;;;;;;5065733;28;20454;-71
2021/10/29 16:33:52;;;;;;;48.07;22.90;;;10.20;99.90;;;;;;5049918;28;20224;-72
2021/10/29 16:36:18;;;;;;;39.63;22.70;;;10.20;99.90;;;;;;5048498;28;20813;-71
2021/10/29 16:38:44;;;;;;;38.30;21.07;;;10.20;99.90;;;;;;5031966;28;20676;-72
2021/10/29 16:41:10;;;;;;;47.43;21.10;;;10.20;99.90;;;;;;5031288;28;20228;-72
2021/10/29 16:43:37;;;;;;;45.50;21.70;;;10.20;99.90;;;;;;5047566;28;20594;-72
2021/10/29 16:46:04;;;;;;;37.80;20.57;;;10.10;99.90;;;;;;5028391;28;20470;-71
2021/10/29 16:48:29;;;;;;;33.53;18.60;;;10.10;99.90;;;;;;5045171;28;20450;-72
2021/10/29 16:50:55;;;;;;;39.10;20.40;;;10.10;99.90;;;;;;5051067;28;20495;-72
2021/10/29 16:53:21;;;;;;;37.23;20.07;;;10.20;99.90;;;;;;5075559;28;20220;-72
2021/10/29 16:55:48;;;;;;;44.87;25.07;;;10.10;99.90;;;;;;5046109;28;20237;-72
2021/10/29 16:58:14;;;;;;;44.87;22.23;;;10.20;99.90;;;;;;5064055;28;20875;-72
2021/10/29 17:00:41;;;;;;;44.30;23.27;;;10.20;99.90;;;;;;5048719;28;20457;-72
2021/10/29 17:03:07;;;;;;;42.27;21.47;;;10.20;99.90;;;;;;5064393;28;20461;-71
2021/10/29 17:05:33;;;;;;;40.00;21.23;;;10.20;99.90;;;;;;5051789;28;20458;-72
2021/10/29 17:07:59;;;;;;;44.97;22.63;;;10.20;99.90;;;;;;5059255;28;20891;-72
2021/10/29 17:10:24;;;;;;;52.97;25.87;;;10.20;99.90;;;;;;5031349;28;20216;-71
2021/10/29 17:12:51;;;;;;;52.10;27.63;;;10.10;99.90;;;;;;5048978;28;20285;-72
2021/10/29 17:15:18;;;;;;;51.50;26.30;;;10.10;99.90;;;;;;5048827;28;20234;-71
2021/10/29 17:17:46;;;;;;;47.87;24.93;;;10.10;99.90;;;;;;5047461;28;20458;-72
2021/10/29 17:20:14;;;;;;;43.93;22.00;;;10.10;99.90;;;;;;5047362;28;20458;-72
2021/10/29 17:22:40;;;;;;;44.67;21.27;;;10.10;99.90;;;;;;5046866;28;20991;-73